createdAt,value
2018-08-18T00:00:50.909Z,10.00
2018-08-18T00:01:59.754Z,10.00
2018-08-18T00:03:02.637Z,9.25
2018-08-18T00:04:05.611Z,10.00
2018-08-18T00:05:08.808Z,9.50
2018-08-18T00:06:13.404Z,9.50
2018-08-18T00:07:16.308Z,11.00
2018-08-18T00:08:19.169Z,10.50
2018-08-18T00:09:22.067Z,9.75
2018-08-18T00:10:24.936Z,12.50
2018-08-18T00:11:28.113Z,13.00
2018-08-18T00:12:30.985Z,14.00
2018-08-18T00:13:35.610Z,11.50
2018-08-18T00:14:38.747Z,12.75
2018-08-18T00:15:41.584Z,13.00
2018-08-18T00:16:44.448Z,12.75
2018-08-18T00:17:47.605Z,12.00
2018-08-18T00:18:50.479Z,12.75
2018-08-18T00:19:53.342Z,10.00
2018-08-18T00:20:56.212Z,13.50
2018-08-18T00:21:59.092Z,13.00
2018-08-18T00:23:02.488Z,12.25
2018-08-18T00:24:07.762Z,9.75
2018-08-18T00:25:10.713Z,12.00
2018-08-18T00:26:13.602Z,11.50
2018-08-18T00:27:16.461Z,14.25
2018-08-18T00:28:20.464Z,12.00
2018-08-18T00:29:23.363Z,11.75
2018-08-18T00:30:27.367Z,11.50
2018-08-18T00:31:31.254Z,11.00
2018-08-18T00:32:34.121Z,12.00
2018-08-18T00:33:37.488Z,11.75
2018-08-18T00:34:46.243Z,11.25
2018-08-18T00:35:49.565Z,11.50
2018-08-18T00:36:52.487Z,13.00
2018-08-18T00:37:55.374Z,12.00
2018-08-18T00:38:59.740Z,15.50
2018-08-18T00:40:04.238Z,12.75
2018-08-18T00:41:07.093Z,14.50
2018-08-18T00:42:10.284Z,13.75
2018-08-18T00:43:13.154Z,14.50
2018-08-18T00:44:16.046Z,12.50
2018-08-18T00:45:18.953Z,15.25
2018-08-18T00:46:21.838Z,13.00
2018-08-18T00:47:24.725Z,16.00
2018-08-18T00:48:28.297Z,14.50
2018-08-18T00:49:31.181Z,15.00
2018-08-18T00:50:36.148Z,12.00
2018-08-18T00:51:41.627Z,12.25
2018-08-18T00:52:45.149Z,12.50
2018-08-18T00:53:48.312Z,11.25
2018-08-18T00:54:51.458Z,12.50
2018-08-18T00:55:54.324Z,9.75
2018-08-18T00:56:57.219Z,12.25
2018-08-18T00:58:00.138Z,12.50
2018-08-18T00:59:03.055Z,12.75
2018-08-18T01:00:05.895Z,11.00
2018-08-18T01:01:09.053Z,12.00
2018-08-18T01:02:11.912Z,12.50
2018-08-18T01:03:14.753Z,12.75
2018-08-18T01:04:17.666Z,9.75
2018-08-18T01:05:20.870Z,11.25
2018-08-18T01:06:24.411Z,10.75
2018-08-18T01:07:27.605Z,11.25
2018-08-18T01:08:32.297Z,11.00
2018-08-18T01:09:36.467Z,10.50
2018-08-18T01:10:43.012Z,9.00
2018-08-18T01:11:45.957Z,10.50
2018-08-18T01:12:48.892Z,10.25
2018-08-18T01:13:52.515Z,11.75
2018-08-18T01:14:55.718Z,11.00
2018-08-18T01:15:58.574Z,9.50
2018-08-18T01:17:01.448Z,12.75
2018-08-18T01:18:04.353Z,11.50
2018-08-18T01:19:07.274Z,10.00
2018-08-18T01:20:10.420Z,11.00
2018-08-18T01:21:13.305Z,11.75
2018-08-18T01:22:16.181Z,10.00
2018-08-18T01:23:19.114Z,10.25
2018-08-18T01:24:22.252Z,9.50
2018-08-18T01:25:25.351Z,11.00
2018-08-18T01:26:28.546Z,10.75
2018-08-18T01:27:31.553Z,9.00
2018-08-18T01:28:34.457Z,11.00
2018-08-18T01:29:37.347Z,11.00
2018-08-18T01:30:40.293Z,13.00
2018-08-18T01:31:43.158Z,9.50
2018-08-18T01:32:46.316Z,10.50
2018-08-18T01:33:50.268Z,9.00
2018-08-18T01:34:53.713Z,11.50
2018-08-18T01:35:57.188Z,11.50
2018-08-18T01:37:00.075Z,9.50
2018-08-18T01:38:03.937Z,11.25
2018-08-18T01:39:07.187Z,11.00
2018-08-18T01:40:10.068Z,12.25
2018-08-18T01:41:14.069Z,11.00
2018-08-18T01:42:16.971Z,10.50
2018-08-18T01:43:19.910Z,11.00
2018-08-18T01:44:24.070Z,11.00
2018-08-18T01:45:27.254Z,11.25
2018-08-18T01:46:30.126Z,11.25
2018-08-18T01:47:33.025Z,10.00
2018-08-18T01:48:36.642Z,10.00
2018-08-18T01:49:39.711Z,11.00
2018-08-18T01:50:42.725Z,9.50
2018-08-18T01:51:46.611Z,12.00
2018-08-18T01:52:49.495Z,11.00
2018-08-18T01:53:52.350Z,11.00
2018-08-18T01:54:55.233Z,10.00
2018-08-18T01:55:58.175Z,9.00
2018-08-18T01:57:05.349Z,9.50
2018-08-18T01:58:08.550Z,9.00
2018-08-18T01:59:11.430Z,11.50
2018-08-18T02:00:18.244Z,11.00
2018-08-18T02:01:21.134Z,14.00
2018-08-18T02:02:28.058Z,9.00
2018-08-18T02:03:31.648Z,12.00
2018-08-18T02:04:34.883Z,11.00
2018-08-18T02:05:40.524Z,14.00
2018-08-18T02:06:45.592Z,11.25
2018-08-18T02:07:50.880Z,11.00
2018-08-18T02:08:57.286Z,11.00
2018-08-18T02:10:00.297Z,11.25
2018-08-18T02:11:03.490Z,12.00
2018-08-18T02:12:06.372Z,11.00
2018-08-18T02:13:09.332Z,12.00
2018-08-18T02:14:17.158Z,10.00
2018-08-18T02:15:20.063Z,11.75
2018-08-18T02:16:22.974Z,10.50
2018-08-18T02:17:26.393Z,12.00
2018-08-18T02:18:29.304Z,11.00
2018-08-18T02:19:32.186Z,11.75
2018-08-18T02:20:35.106Z,11.75
2018-08-18T02:21:37.994Z,11.00
2018-08-18T02:22:41.069Z,12.50
2018-08-18T02:23:44.384Z,12.00
2018-08-18T02:24:47.498Z,13.00
2018-08-18T02:25:50.389Z,12.00
2018-08-18T02:26:53.387Z,12.00
2018-08-18T02:27:56.531Z,12.50
2018-08-18T02:28:59.596Z,13.00
2018-08-18T02:30:04.247Z,14.75
2018-08-18T02:31:07.228Z,13.50
2018-08-18T02:32:11.068Z,10.50
2018-08-18T02:33:14.031Z,14.50
2018-08-18T02:34:16.898Z,14.00
2018-08-18T02:35:19.919Z,11.00
2018-08-18T02:36:23.099Z,11.75
2018-08-18T02:37:26.486Z,11.00
2018-08-18T02:38:29.381Z,12.00
2018-08-18T02:39:32.299Z,11.25
2018-08-18T02:40:35.182Z,9.75
2018-08-18T02:41:38.222Z,11.75
2018-08-18T02:42:41.118Z,11.25
2018-08-18T02:43:43.974Z,10.00
2018-08-18T02:44:46.856Z,11.50
2018-08-18T02:45:49.877Z,10.75
2018-08-18T02:46:52.751Z,10.75
2018-08-18T02:48:00.315Z,11.00
2018-08-18T02:49:03.754Z,10.75
2018-08-18T02:50:06.627Z,13.25
2018-08-18T02:51:09.480Z,12.75
2018-08-18T02:52:16.316Z,13.25
2018-08-18T02:53:20.545Z,11.25
2018-08-18T02:54:24.591Z,12.00
2018-08-18T02:55:27.547Z,13.00
2018-08-18T02:56:35.317Z,12.75
2018-08-18T02:57:41.290Z,11.50
2018-08-18T02:58:48.757Z,11.50
2018-08-18T02:59:51.650Z,13.00
2018-08-18T03:00:54.827Z,11.00
2018-08-18T03:01:57.742Z,9.00
2018-08-18T03:03:01.207Z,11.25
2018-08-18T03:04:04.168Z,11.00
2018-08-18T03:05:07.179Z,11.00
2018-08-18T03:06:13.218Z,10.00
2018-08-18T03:07:16.397Z,10.75
2018-08-18T03:08:19.288Z,10.00
2018-08-18T03:09:22.374Z,10.00
2018-08-18T03:10:26.422Z,11.00
2018-08-18T03:11:30.230Z,8.00
2018-08-18T03:12:37.874Z,11.00
2018-08-18T03:13:41.029Z,11.00
2018-08-18T03:14:43.882Z,10.00
2018-08-18T03:15:46.902Z,9.50
2018-08-18T03:16:49.935Z,10.00
2018-08-18T03:17:52.842Z,9.50
2018-08-18T03:18:56.483Z,9.00
2018-08-18T03:19:59.361Z,11.00
2018-08-18T03:21:03.095Z,10.25
2018-08-18T03:22:06.116Z,10.25
2018-08-18T03:23:09.130Z,11.50
2018-08-18T03:24:12.547Z,11.00
2018-08-18T03:25:15.698Z,10.50
2018-08-18T03:26:18.558Z,8.00
2018-08-18T03:27:21.434Z,10.25
2018-08-18T03:28:24.374Z,10.00
2018-08-18T03:29:28.380Z,8.00
2018-08-18T03:30:31.257Z,10.00
2018-08-18T03:31:34.503Z,11.00
2018-08-18T03:32:37.368Z,8.50
2018-08-18T03:33:40.325Z,10.50
2018-08-18T03:34:43.231Z,10.75
2018-08-18T03:35:46.137Z,8.50
2018-08-18T03:36:51.091Z,9.50
2018-08-18T03:37:54.279Z,10.00
2018-08-18T03:38:57.793Z,8.00
2018-08-18T03:40:00.640Z,9.00
2018-08-18T03:41:03.530Z,9.00
2018-08-18T03:42:06.413Z,10.00
2018-08-18T03:43:09.332Z,10.75
2018-08-18T03:44:13.403Z,10.25
2018-08-18T03:45:16.316Z,10.50
2018-08-18T03:46:19.291Z,8.00
2018-08-18T03:47:22.396Z,9.50
2018-08-18T03:48:25.276Z,11.00
2018-08-18T03:49:28.179Z,11.00
2018-08-18T03:50:35.283Z,8.00
2018-08-18T03:51:44.639Z,10.00
2018-08-18T03:52:47.533Z,9.00
2018-08-18T03:53:50.444Z,9.50
2018-08-18T03:54:53.441Z,10.25
2018-08-18T03:55:56.415Z,8.50
2018-08-18T03:56:59.633Z,7.75
2018-08-18T03:58:02.523Z,9.50
2018-08-18T03:59:05.378Z,8.00
2018-08-18T04:00:08.276Z,10.25
2018-08-18T04:01:11.236Z,8.00
2018-08-18T04:02:14.117Z,8.00
2018-08-18T04:03:17.315Z,9.00
2018-08-18T04:04:21.240Z,9.50
2018-08-18T04:05:24.102Z,9.50
2018-08-18T04:06:26.993Z,8.00
2018-08-18T04:07:30.022Z,8.00
2018-08-18T04:08:32.912Z,9.50
2018-08-18T04:09:37.213Z,8.50
2018-08-18T04:10:40.148Z,8.50
2018-08-18T04:11:43.027Z,7.75
2018-08-18T04:12:45.902Z,10.75
2018-08-18T04:13:48.812Z,10.75
2018-08-18T04:14:52.270Z,12.50
2018-08-18T04:15:55.414Z,12.00
2018-08-18T04:16:58.308Z,12.50
2018-08-18T04:18:05.465Z,13.50
2018-08-18T04:19:08.351Z,14.00
2018-08-18T04:20:11.245Z,14.00
2018-08-18T04:21:14.099Z,13.00
2018-08-18T04:22:17.489Z,14.00
2018-08-18T04:23:20.443Z,14.00
2018-08-18T04:24:24.911Z,13.75
2018-08-18T04:25:28.024Z,13.00
2018-08-18T04:26:31.473Z,11.00
2018-08-18T04:27:37.112Z,13.00
2018-08-18T04:28:40.313Z,12.00
2018-08-18T04:29:43.223Z,11.00
2018-08-18T04:30:46.138Z,10.75
2018-08-18T04:31:49.042Z,10.00
2018-08-18T04:32:51.926Z,11.00
2018-08-18T04:33:54.790Z,10.50
2018-08-18T04:34:58.701Z,10.00
2018-08-18T04:36:03.267Z,10.75
2018-08-18T04:37:06.144Z,9.00
2018-08-18T04:38:09.060Z,10.50
2018-08-18T04:39:12.104Z,8.00
2018-08-18T04:40:14.961Z,11.00
2018-08-18T04:41:18.125Z,11.50
2018-08-18T04:42:20.988Z,11.00
2018-08-18T04:43:23.873Z,9.50
2018-08-18T04:44:26.778Z,10.00
2018-08-18T04:45:29.691Z,10.00
2018-08-18T04:46:32.563Z,8.50
2018-08-18T04:47:35.772Z,8.00
2018-08-18T04:48:38.660Z,8.00
2018-08-18T04:49:41.592Z,8.50
2018-08-18T04:50:44.445Z,8.50
2018-08-18T04:51:47.357Z,10.25
2018-08-18T04:52:50.304Z,10.00
2018-08-18T04:53:53.526Z,10.25
2018-08-18T04:54:56.394Z,9.00
2018-08-18T04:55:59.254Z,9.50
2018-08-18T04:57:02.316Z,10.75
2018-08-18T04:58:05.205Z,10.00
2018-08-18T04:59:08.165Z,10.00
2018-08-18T05:00:13.092Z,10.50
2018-08-18T05:01:16.055Z,13.50
2018-08-18T05:02:19.002Z,12.50
2018-08-18T05:03:21.937Z,12.50
2018-08-18T05:04:24.862Z,15.00
2018-08-18T05:05:28.939Z,14.75
2018-08-18T05:06:33.083Z,14.00
2018-08-18T05:07:40.272Z,12.00
2018-08-18T05:08:43.267Z,14.00
2018-08-18T05:09:47.637Z,14.50
2018-08-18T05:10:51.145Z,11.50
2018-08-18T05:11:54.428Z,14.00
2018-08-18T05:12:57.613Z,13.25
2018-08-18T05:14:00.514Z,13.00
2018-08-18T05:15:03.413Z,13.00
2018-08-18T05:16:06.282Z,12.00
2018-08-18T05:17:10.304Z,12.00
2018-08-18T05:18:13.885Z,12.50
2018-08-18T05:19:17.210Z,12.00
2018-08-18T05:20:20.107Z,10.50
2018-08-18T05:21:24.009Z,10.00
2018-08-18T05:22:26.895Z,10.25
2018-08-18T05:23:29.769Z,11.00
2018-08-18T05:24:32.663Z,8.50
2018-08-18T05:25:40.134Z,11.00
2018-08-18T05:26:43.041Z,8.00
2018-08-18T05:27:46.588Z,8.50
2018-08-18T05:28:49.737Z,7.50
2018-08-18T05:29:53.550Z,11.50
2018-08-18T05:33:37.171Z,10.00
2018-08-18T05:34:40.336Z,10.00
2018-08-18T05:35:46.283Z,10.00
2018-08-18T05:36:49.192Z,9.75
2018-08-18T05:37:52.216Z,10.75
2018-08-18T05:38:55.462Z,9.75
2018-08-18T05:39:58.853Z,10.00
2018-08-18T05:41:02.964Z,11.00
2018-08-18T05:42:06.064Z,10.50
2018-08-18T05:43:09.380Z,10.00
2018-08-18T05:44:12.375Z,10.25
2018-08-18T05:45:19.546Z,10.00
2018-08-18T05:46:22.545Z,9.75
2018-08-18T05:47:25.958Z,8.75
2018-08-18T05:48:28.937Z,10.00
2018-08-18T05:49:31.822Z,10.25
2018-08-18T05:50:34.997Z,10.50
2018-08-18T05:51:45.402Z,8.00
2018-08-18T05:52:48.270Z,10.00
2018-08-18T05:53:51.626Z,7.75
2018-08-18T05:54:54.571Z,10.00
2018-08-18T05:55:57.786Z,10.50
2018-08-18T05:57:00.745Z,11.00
2018-08-18T05:58:03.906Z,7.00
2018-08-18T05:59:06.817Z,10.50
2018-08-18T06:00:14.698Z,9.50
2018-08-18T06:01:22.377Z,8.00
2018-08-18T06:02:25.310Z,10.00
2018-08-18T06:03:28.165Z,9.50
2018-08-18T06:04:31.395Z,10.25
2018-08-18T06:05:37.268Z,13.00
2018-08-18T06:06:41.138Z,9.00
2018-08-18T06:07:44.127Z,10.00
2018-08-18T06:08:47.042Z,11.00
2018-08-18T06:09:50.138Z,10.00
2018-08-18T06:10:53.671Z,12.75
2018-08-18T06:12:00.641Z,10.00
2018-08-18T06:13:12.474Z,11.75
2018-08-18T06:14:16.206Z,13.00
2018-08-18T06:15:19.122Z,16.75
2018-08-18T06:16:22.071Z,28.75
2018-08-18T06:17:30.057Z,24.00
2018-08-18T06:18:33.018Z,23.75
2018-08-18T06:19:35.921Z,23.25
2018-08-18T06:20:38.825Z,19.50
2018-08-18T06:21:41.673Z,21.25
2018-08-18T06:22:44.574Z,30.25
2018-08-18T06:23:47.904Z,30.00
2018-08-18T06:24:50.800Z,27.25
2018-08-18T06:25:53.649Z,22.50
2018-08-18T06:26:56.574Z,22.25
2018-08-18T06:27:59.563Z,25.00
2018-08-18T06:29:02.482Z,28.25
2018-08-18T06:30:05.716Z,32.00
2018-08-18T06:31:08.827Z,32.00
2018-08-18T06:32:11.856Z,31.00
2018-08-18T06:33:16.196Z,31.75
2018-08-18T06:34:19.349Z,32.00
2018-08-18T06:35:22.439Z,36.25
2018-08-18T06:36:25.835Z,36.75
2018-08-18T06:37:28.824Z,37.75
2018-08-18T06:38:32.020Z,34.75
2018-08-18T06:39:35.271Z,31.75
2018-08-18T06:40:38.326Z,31.75
2018-08-18T06:41:41.378Z,31.75
2018-08-18T06:42:45.850Z,34.75
2018-08-18T06:43:48.841Z,40.50
2018-08-18T06:44:51.901Z,40.50
2018-08-18T06:45:54.950Z,39.75
2018-08-18T06:46:58.567Z,43.50
2018-08-18T06:48:01.885Z,42.25
2018-08-18T06:49:04.953Z,44.75
2018-08-18T06:50:08.084Z,43.75
2018-08-18T06:51:11.058Z,45.75
2018-08-18T06:52:17.940Z,43.75
2018-08-18T06:53:21.151Z,45.00
2018-08-18T06:54:24.185Z,43.00
2018-08-18T06:55:27.496Z,44.25
2018-08-18T06:56:30.528Z,40.25
2018-08-18T06:57:33.550Z,39.75
2018-08-18T06:58:36.807Z,38.25
2018-08-18T06:59:39.897Z,33.50
2018-08-18T07:00:43.000Z,35.50
2018-08-18T07:01:46.284Z,35.00
2018-08-18T07:02:49.234Z,33.00
2018-08-18T07:03:52.202Z,31.00
2018-08-18T07:04:55.166Z,30.25
2018-08-18T07:05:58.215Z,30.25
2018-08-18T07:07:01.303Z,28.25
2018-08-18T07:08:04.329Z,26.00
2018-08-18T07:09:07.477Z,25.50
2018-08-18T07:10:11.196Z,25.50
2018-08-18T07:11:14.222Z,23.75
2018-08-18T07:12:17.266Z,25.00
2018-08-18T07:13:20.254Z,22.00
2018-08-18T07:14:23.548Z,22.25
2018-08-18T07:15:27.099Z,23.00
2018-08-18T07:16:30.714Z,25.00
2018-08-18T07:17:34.108Z,22.50
2018-08-18T07:18:37.243Z,23.00
2018-08-18T07:19:40.267Z,23.75
2018-08-18T07:20:43.961Z,22.00
2018-08-18T07:21:48.405Z,21.00
2018-08-18T07:22:51.802Z,21.75
2018-08-18T07:23:54.904Z,19.25
2018-08-18T07:24:58.058Z,17.25
2018-08-18T07:26:03.781Z,17.00
2018-08-18T07:27:06.968Z,18.00
2018-08-18T07:28:10.851Z,18.25
2018-08-18T07:29:13.790Z,20.00
2018-08-18T07:30:18.335Z,18.25
2018-08-18T07:31:21.249Z,19.75
2018-08-18T07:32:24.317Z,18.50
2018-08-18T07:33:27.548Z,19.50
2018-08-18T07:34:31.445Z,18.75
2018-08-18T07:35:34.417Z,18.75
2018-08-18T07:36:37.319Z,19.75
2018-08-18T07:37:40.211Z,18.00
2018-08-18T07:38:43.091Z,18.75
2018-08-18T07:39:46.392Z,16.00
2018-08-18T07:40:51.927Z,19.50
2018-08-18T07:41:54.848Z,17.75
2018-08-18T07:43:12.477Z,19.50
2018-08-18T07:44:15.465Z,18.00
2018-08-18T07:45:18.480Z,20.00
2018-08-18T07:46:25.022Z,17.75
2018-08-18T07:47:35.511Z,19.00
2018-08-18T07:48:39.465Z,17.50
2018-08-18T07:49:43.505Z,22.75
2018-08-18T07:50:46.469Z,22.75
2018-08-18T07:51:49.459Z,22.25
2018-08-18T07:52:53.558Z,22.25
2018-08-18T07:53:56.467Z,18.50
2018-08-18T07:54:59.541Z,23.00
2018-08-18T07:56:04.718Z,24.00
2018-08-18T07:57:08.736Z,25.00
2018-08-18T07:58:11.858Z,26.00
2018-08-18T07:59:15.211Z,25.00
2018-08-18T08:00:18.245Z,25.00
2018-08-18T08:01:22.917Z,26.00
2018-08-18T08:02:26.984Z,26.00
2018-08-18T08:03:34.556Z,24.25
2018-08-18T08:04:38.624Z,25.75
2018-08-18T08:05:42.295Z,24.00
2018-08-18T08:06:45.358Z,23.25
2018-08-18T08:07:48.276Z,23.25
2018-08-18T08:08:51.831Z,24.25
2018-08-18T08:09:54.875Z,22.75
2018-08-18T08:11:03.583Z,24.25
2018-08-18T08:12:06.501Z,23.25
2018-08-18T08:13:10.247Z,22.75
2018-08-18T08:14:14.641Z,25.00
2018-08-18T08:15:19.502Z,24.75
2018-08-18T08:16:24.358Z,25.00
2018-08-18T08:17:28.433Z,24.50
2018-08-18T08:18:31.412Z,24.50
2018-08-18T08:19:35.032Z,22.50
2018-08-18T08:20:39.769Z,22.00
2018-08-18T08:21:42.741Z,21.00
2018-08-18T08:22:46.277Z,22.25
2018-08-18T08:23:51.003Z,23.00
2018-08-18T08:24:54.044Z,24.00
2018-08-18T08:25:57.974Z,25.75
2018-08-18T08:27:04.505Z,25.50
2018-08-18T08:28:07.479Z,23.25
2018-08-18T08:29:11.524Z,24.75
2018-08-18T08:30:15.311Z,24.75
2018-08-18T08:31:18.464Z,24.00
2018-08-18T08:32:21.552Z,25.25
2018-08-18T08:33:28.918Z,24.75
2018-08-18T08:34:36.176Z,23.25
2018-08-18T08:35:39.237Z,23.25
2018-08-18T08:36:42.683Z,23.75
2018-08-18T08:37:46.213Z,24.25
2018-08-18T08:38:49.158Z,24.75
2018-08-18T08:39:52.084Z,22.25
2018-08-18T08:40:55.227Z,23.25
2018-08-18T08:41:58.434Z,22.25
2018-08-18T08:43:08.209Z,22.00
2018-08-18T08:44:11.296Z,22.75
2018-08-18T08:45:15.070Z,22.25
2018-08-18T08:46:18.072Z,22.00
2018-08-18T08:47:21.148Z,19.00
2018-08-18T08:48:24.463Z,20.00
2018-08-18T08:49:27.488Z,20.50
2018-08-18T08:50:31.413Z,18.50
2018-08-18T08:51:34.435Z,20.25
2018-08-18T08:52:42.332Z,17.50
2018-08-18T08:53:45.426Z,17.50
2018-08-18T08:54:48.808Z,15.75
2018-08-18T08:55:52.362Z,17.75
2018-08-18T08:56:56.429Z,19.25
2018-08-18T08:58:00.489Z,16.25
2018-08-18T08:59:04.611Z,16.75
2018-08-18T09:00:08.334Z,15.00
2018-08-18T09:01:11.661Z,15.75
2018-08-18T09:02:15.067Z,12.50
2018-08-18T09:03:18.224Z,12.00
2018-08-18T09:04:22.031Z,14.00
2018-08-18T09:05:25.568Z,13.25
2018-08-18T09:06:28.871Z,13.00
2018-08-18T09:07:33.123Z,15.75
2018-08-18T09:08:36.835Z,12.50
2018-08-18T09:09:44.640Z,14.50
2018-08-18T09:10:49.351Z,14.00
2018-08-18T09:11:52.472Z,14.50
2018-08-18T09:12:55.409Z,15.00
2018-08-18T09:14:01.044Z,13.00
2018-08-18T09:15:04.111Z,14.00
2018-08-18T09:16:07.832Z,16.00
2018-08-18T09:17:10.776Z,16.50
2018-08-18T09:18:13.721Z,15.00
2018-08-18T09:19:16.945Z,13.00
2018-08-18T09:20:20.624Z,12.25
2018-08-18T09:21:23.632Z,12.50
2018-08-18T09:22:27.811Z,16.25
2018-08-18T09:23:34.735Z,13.75
2018-08-18T09:24:37.684Z,16.25
2018-08-18T09:25:41.067Z,13.00
2018-08-18T09:26:48.811Z,13.25
2018-08-18T09:27:55.366Z,13.25
2018-08-18T09:28:58.345Z,12.75
2018-08-18T09:30:01.393Z,10.00
2018-08-18T09:31:04.541Z,10.00
2018-08-18T09:32:08.672Z,10.00
2018-08-18T09:33:11.634Z,10.50
2018-08-18T09:34:14.591Z,10.25
2018-08-18T09:35:18.751Z,12.00
2018-08-18T09:36:21.764Z,13.50
2018-08-18T09:37:24.716Z,12.00
2018-08-18T09:38:27.892Z,16.00
2018-08-18T09:39:34.267Z,9.50
2018-08-18T09:40:37.158Z,11.00
2018-08-18T09:41:40.688Z,13.75
2018-08-18T09:42:43.637Z,8.25
2018-08-18T09:43:46.547Z,13.00
2018-08-18T09:44:53.740Z,8.25
2018-08-18T09:45:58.041Z,11.75
2018-08-18T09:47:02.996Z,13.50
2018-08-18T09:49:14.879Z,13.25
2018-08-18T09:50:17.821Z,12.00
2018-08-18T09:51:21.201Z,12.50
2018-08-18T09:52:24.196Z,12.25
2018-08-18T09:53:27.188Z,12.00
2018-08-18T09:54:31.144Z,13.50
2018-08-18T09:55:34.033Z,11.25
2018-08-18T09:56:38.599Z,9.50
2018-08-18T09:57:42.110Z,8.00
2018-08-18T09:58:45.077Z,11.00
2018-08-18T09:59:48.001Z,8.75
2018-08-18T10:00:51.607Z,9.25
2018-08-18T10:01:54.701Z,8.00
2018-08-18T10:02:58.720Z,11.50
2018-08-18T10:04:02.090Z,9.00
2018-08-18T10:05:05.076Z,7.00
2018-08-18T10:06:08.251Z,8.00
2018-08-18T10:07:11.225Z,8.50
2018-08-18T10:08:14.133Z,8.00
2018-08-18T10:09:19.120Z,7.75
2018-08-18T10:10:26.480Z,8.00
2018-08-18T10:11:29.444Z,8.25
2018-08-18T10:12:32.371Z,9.00
2018-08-18T10:13:37.083Z,9.00
2018-08-18T10:14:40.713Z,11.25
2018-08-18T10:15:44.786Z,13.50
2018-08-18T10:16:48.982Z,12.00
2018-08-18T10:17:51.925Z,9.50
2018-08-18T10:18:54.807Z,9.00
2018-08-18T10:19:57.710Z,10.75
2018-08-18T10:21:01.966Z,13.00
2018-08-18T10:22:04.910Z,9.25
2018-08-18T10:23:11.500Z,9.25
2018-08-18T10:24:14.556Z,8.75
2018-08-18T10:25:19.144Z,9.00
2018-08-18T10:27:31.476Z,8.50
2018-08-18T10:28:35.473Z,9.75
2018-08-18T10:29:38.849Z,9.75
2018-08-18T10:32:50.760Z,9.50
2018-08-18T10:33:55.747Z,8.25
2018-08-18T10:34:58.617Z,8.00
2018-08-18T10:37:21.370Z,10.00
2018-08-18T10:38:24.263Z,11.25
2018-08-18T10:39:27.794Z,12.00
2018-08-18T10:40:30.748Z,10.00
2018-08-18T10:41:34.770Z,10.00
2018-08-18T10:42:37.750Z,9.00
2018-08-18T10:43:41.281Z,9.75
2018-08-18T10:44:49.492Z,11.00
2018-08-18T10:45:54.952Z,10.50
2018-08-18T10:46:57.956Z,9.25
2018-08-18T10:48:02.568Z,11.75
2018-08-18T10:49:06.381Z,12.00
2018-08-18T10:50:09.421Z,10.25
2018-08-18T10:51:14.170Z,9.25
2018-08-18T10:52:17.079Z,8.00
2018-08-18T10:53:21.032Z,7.50
2018-08-18T10:54:23.955Z,8.75
2018-08-18T10:55:27.496Z,11.25
2018-08-18T10:56:31.486Z,11.75
2018-08-18T10:57:34.501Z,11.50
2018-08-18T10:58:37.589Z,13.50
2018-08-18T10:59:43.989Z,12.25
2018-08-18T11:00:48.138Z,11.75
2018-08-18T11:01:55.548Z,9.50
2018-08-18T11:02:59.744Z,9.75
2018-08-18T11:04:04.617Z,10.00
2018-08-18T11:05:07.784Z,10.00
2018-08-18T11:06:10.924Z,11.25
2018-08-18T11:07:13.861Z,10.75
2018-08-18T11:08:18.005Z,12.50
2018-08-18T11:09:21.918Z,10.50
2018-08-18T11:10:25.032Z,10.25
2018-08-18T11:11:28.139Z,11.00
2018-08-18T11:12:32.819Z,11.75
2018-08-18T11:13:35.933Z,11.50
2018-08-18T11:14:40.484Z,10.00
2018-08-18T11:15:44.983Z,9.75
2018-08-18T11:16:47.872Z,8.00
2018-08-18T11:17:50.756Z,11.00
2018-08-18T11:18:55.428Z,9.75
2018-08-18T11:20:03.095Z,10.00
2018-08-18T11:21:12.157Z,10.50
2018-08-18T11:22:15.057Z,10.75
2018-08-18T11:23:18.059Z,12.75
2018-08-18T11:24:21.144Z,12.75
2018-08-18T11:25:24.141Z,14.75
2018-08-18T11:26:28.596Z,12.50
2018-08-18T11:27:34.685Z,10.50
2018-08-18T11:28:37.741Z,10.00
2018-08-18T11:29:41.933Z,13.00
2018-08-18T11:30:49.548Z,14.00
2018-08-18T11:31:52.940Z,13.25
2018-08-18T11:32:57.103Z,10.25
2018-08-18T11:34:00.426Z,11.75
2018-08-18T11:35:07.476Z,13.50
2018-08-18T11:36:12.612Z,11.75
2018-08-18T11:37:15.553Z,8.00
2018-08-18T11:38:18.479Z,11.75
2018-08-18T11:39:21.415Z,11.00
2018-08-18T11:40:25.587Z,8.75
2018-08-18T11:41:29.537Z,11.00
2018-08-18T11:42:32.608Z,9.00
2018-08-18T11:43:37.244Z,11.75
2018-08-18T11:44:44.463Z,11.25
2018-08-18T11:45:48.793Z,12.25
2018-08-18T11:46:53.254Z,12.75
2018-08-18T11:47:57.221Z,10.00
2018-08-18T11:49:01.104Z,10.50
2018-08-18T11:50:04.680Z,11.75
2018-08-18T11:51:08.487Z,10.00
2018-08-18T11:52:12.332Z,9.50
2018-08-18T11:53:15.844Z,13.50
2018-08-18T11:54:25.516Z,13.50
2018-08-18T11:55:28.502Z,12.00
2018-08-18T11:56:33.875Z,11.50
2018-08-18T11:57:36.967Z,11.00
2018-08-18T11:58:39.988Z,12.75
2018-08-18T11:59:44.213Z,9.25
2018-08-18T12:01:01.294Z,8.50
2018-08-18T12:02:04.490Z,11.25
2018-08-18T12:03:13.464Z,9.50
2018-08-18T12:04:16.432Z,8.50
2018-08-18T12:05:19.401Z,11.75
2018-08-18T12:06:22.708Z,11.25
2018-08-18T12:07:25.659Z,10.00
2018-08-18T12:08:31.700Z,10.00
2018-08-18T12:09:34.812Z,9.00
2018-08-18T12:10:37.847Z,9.25
2018-08-18T12:11:41.705Z,9.00
2018-08-18T12:12:45.091Z,9.25
2018-08-18T12:13:49.562Z,9.00
2018-08-18T12:14:52.551Z,8.00
2018-08-18T12:16:00.318Z,9.00
2018-08-18T12:17:04.214Z,8.00
2018-08-18T12:18:07.134Z,8.00
2018-08-18T12:19:11.283Z,9.25
2018-08-18T12:20:14.356Z,8.75
2018-08-18T12:21:17.513Z,8.25
2018-08-18T12:22:20.442Z,8.50
2018-08-18T12:23:23.370Z,9.25
2018-08-18T12:24:26.344Z,9.25
2018-08-18T12:25:30.409Z,9.25
2018-08-18T12:26:34.726Z,9.75
2018-08-18T12:27:38.265Z,8.75
2018-08-18T12:28:46.177Z,7.25
2018-08-18T12:29:50.698Z,8.50
2018-08-18T12:30:53.549Z,7.75
2018-08-18T12:31:56.848Z,8.75
2018-08-18T12:32:59.765Z,7.75
2018-08-18T12:34:02.713Z,8.00
2018-08-18T12:35:05.631Z,9.25
2018-08-18T12:36:08.676Z,7.50
2018-08-18T12:37:12.127Z,7.00
2018-08-18T12:38:15.523Z,8.00
2018-08-18T12:39:18.956Z,8.00
2018-08-18T12:40:21.942Z,8.00
2018-08-18T12:41:24.826Z,8.00
2018-08-18T12:42:28.793Z,5.75
2018-08-18T12:43:35.092Z,6.00
2018-08-18T12:44:38.254Z,5.25
2018-08-18T12:45:46.505Z,5.75
2018-08-18T12:46:50.392Z,6.00
2018-08-18T12:47:53.265Z,6.00
2018-08-18T12:48:56.202Z,7.75
2018-08-18T12:49:59.165Z,7.25
2018-08-18T12:51:02.344Z,7.75
2018-08-18T12:52:05.229Z,7.25
2018-08-18T12:53:09.745Z,7.75
2018-08-18T12:54:12.693Z,7.00
2018-08-18T12:55:18.017Z,6.75
2018-08-18T12:56:21.729Z,6.50
2018-08-18T12:57:27.721Z,6.00
2018-08-18T12:58:32.129Z,6.00
2018-08-18T12:59:35.103Z,7.00
2018-08-18T13:00:38.072Z,5.00
2018-08-18T13:01:49.258Z,6.00
2018-08-18T13:02:53.136Z,7.00
2018-08-18T13:03:56.445Z,6.00
2018-08-18T13:04:59.418Z,5.00
2018-08-18T13:06:03.954Z,5.75
2018-08-18T13:07:06.883Z,7.00
2018-08-18T13:08:09.777Z,6.75
2018-08-18T13:09:14.818Z,7.00
2018-08-18T13:10:19.909Z,6.00
2018-08-18T13:11:23.149Z,6.50
2018-08-18T13:12:27.941Z,5.50
2018-08-18T13:13:31.778Z,6.75
2018-08-18T13:14:34.705Z,6.25
2018-08-18T13:15:43.701Z,7.00
2018-08-18T13:16:47.725Z,7.75
2018-08-18T13:17:50.707Z,5.75
2018-08-18T13:18:55.366Z,5.00
2018-08-18T13:19:59.461Z,6.00
2018-08-18T13:21:04.966Z,5.75
2018-08-18T13:22:08.528Z,6.00
2018-08-18T13:23:12.430Z,6.00
2018-08-18T13:24:16.138Z,6.00
2018-08-18T13:25:20.711Z,6.00
2018-08-18T13:26:24.824Z,5.00
2018-08-18T13:27:27.874Z,5.50
2018-08-18T13:28:30.890Z,5.00
2018-08-18T13:29:34.142Z,5.50
2018-08-18T13:30:37.038Z,7.00
2018-08-18T13:31:41.798Z,6.00
2018-08-18T13:32:45.717Z,6.00
2018-08-18T13:33:48.601Z,5.50
2018-08-18T13:34:52.490Z,6.00
2018-08-18T13:35:56.620Z,5.00
2018-08-18T13:37:00.166Z,5.00
2018-08-18T13:38:04.006Z,6.00
2018-08-18T13:39:08.002Z,6.00
2018-08-18T13:40:13.158Z,5.75
2018-08-18T13:41:16.107Z,5.25
2018-08-18T13:42:20.945Z,5.00
2018-08-18T13:43:23.969Z,5.00
2018-08-18T13:44:31.745Z,5.50
2018-08-18T13:45:40.505Z,6.00
2018-08-18T13:46:43.460Z,4.75
2018-08-18T13:47:46.693Z,5.00
2018-08-18T13:48:54.450Z,5.25
2018-08-18T13:50:02.221Z,5.00
2018-08-18T13:51:05.114Z,4.00
2018-08-18T13:52:09.013Z,5.00
2018-08-18T13:53:11.970Z,4.00
2018-08-18T13:54:15.167Z,4.50
2018-08-18T13:55:18.460Z,5.00
2018-08-18T13:56:24.242Z,5.00
2018-08-18T13:57:32.099Z,6.00
2018-08-18T13:58:35.043Z,5.25